Aurora — V7BS9 — position and weather

sailwx.info

Track history (hours):
 
Tides and Currents Weather Stations Pressure Air Temp Water Temp Dewpoint Dewpoint Depression Visibility Wind Speed Wind Dir Waves Ship Positions

Aurora

Last reported at 2014-Sep-06 13:33 UTC. Time now 2014-Oct-21 05:22 UTC.
Position N 34°33' W 076°39'.
Warning: this ship's position is 44 days out of date.

Length 170 m; draft 6.5 m.

Type: Tanker. MMSI: 538001356.

Date/timePositionNaut miles runAvg speedWind from/ knotsBaromVisibWave heightAir tempDewpointWater temp
2014-Sep-06 13:33N 34°33' W 076°39'6 5.7
2014-Sep-06 12:33N 34°38' W 076°39'0 0.0
2014-Sep-06 11:33N 34°38' W 076°39'0 0.0
2014-Sep-06 10:33N 34°38' W 076°40'0 0.0
2014-Sep-06 09:33N 34°38' W 076°40'0 0.0
2014-Sep-06 08:33N 34°38' W 076°40'0 0.0
2014-Sep-06 07:33N 34°38' W 076°40'0 0.0
2014-Sep-06 06:33N 34°38' W 076°40'0 0.0
2014-Sep-06 05:33N 34°38' W 076°40'0 0.0
2014-Sep-06 04:33N 34°38' W 076°40'0 0.0
2014-Sep-06 03:33N 34°38' W 076°40'0 0.0
2014-Sep-06 02:33N 34°38' W 076°40'0 0.0
2014-Sep-06 01:33N 34°38' W 076°40'0 0.0
2014-Sep-06 00:33N 34°38' W 076°40'0 0.0
2014-Sep-05 23:33N 34°38' W 076°40'0 0.0
2014-Sep-05 22:33N 34°38' W 076°40'0 0.0
2014-Sep-05 21:33N 34°38' W 076°40'0 0.0
2014-Sep-05 20:33N 34°38' W 076°40'0 0.0
2014-Sep-05 19:33N 34°38' W 076°40'0 0.0
2014-Sep-05 18:33N 34°38' W 076°40'0 0.0
2014-Sep-05 17:33N 34°38' W 076°40'0 0.0
2014-Sep-05 16:33N 34°38' W 076°40'0 0.1
2014-Sep-05 15:33N 34°38' W 076°40'1 1.3
2014-Sep-05 14:33N 34°39' W 076°40'4 3.6
2014-Sep-05 13:32N 34°43' W 076°41'0 0.0
2014-Sep-05 12:32N 34°43' W 076°41'0 0.0
2014-Sep-05 11:32N 34°43' W 076°41'0 0.0
2014-Sep-05 10:32N 34°43' W 076°41'0 0.0
2014-Sep-05 09:33N 34°43' W 076°41'0 0.0
2014-Sep-05 08:33N 34°43' W 076°41'0 0.0
2014-Sep-05 07:33N 34°43' W 076°41'0 0.0
2014-Sep-05 06:31N 34°43' W 076°41'0 0.0
2014-Sep-05 05:31N 34°43' W 076°41'0 0.0
2014-Sep-05 04:31N 34°43' W 076°41'0 0.0
2014-Sep-05 03:31N 34°43' W 076°41'0 0.0
2014-Sep-05 02:33N 34°43' W 076°41'0 0.0
2014-Sep-05 01:33N 34°43' W 076°41'0 0.0
2014-Sep-05 00:32N 34°43' W 076°41'0 0.0
2014-Sep-04 23:32N 34°43' W 076°41'0 0.0
2014-Sep-04 22:32N 34°43' W 076°41'0 0.0
2014-Sep-04 21:32N 34°43' W 076°41'0 0.0
2014-Sep-04 20:32N 34°43' W 076°41'0 0.0
2014-Sep-04 19:32N 34°43' W 076°41'0 0.0
2014-Sep-04 18:32N 34°43' W 076°41'0 0.0
2014-Sep-04 17:33N 34°43' W 076°41'0 0.0
2014-Sep-04 16:33N 34°43' W 076°41'0 0.0
2014-Sep-04 15:33N 34°43' W 076°41'0 0.0
2014-Sep-04 14:33N 34°43' W 076°41'1 1.2
2014-Sep-04 13:34N 34°42' W 076°41'10 8.5
2014-Sep-04 12:26N 34°33' W 076°37'  
Track history (hours):
 
Tides and Currents Weather Stations Pressure Air Temp Water Temp Dewpoint Dewpoint Depression Visibility Wind Speed Wind Dir Waves Ship Positions

Aurora

Last reported at 2014-Sep-06 13:33 UTC. Time now 2014-Oct-21 05:22 UTC.
Position N 34°33' W 076°39'.
Warning: this ship's position is 44 days out of date.

Length 170 m; draft 6.5 m.

Type: Tanker. MMSI: 538001356.

Date/timePositionNaut miles runAvg speedWind from/ knotsBaromVisibWave heightAir tempDewpointWater temp
2014-Sep-06 13:33N 34°33' W 076°39'6 5.7
2014-Sep-06 12:33N 34°38' W 076°39'0 0.0
2014-Sep-06 11:33N 34°38' W 076°39'0 0.0
2014-Sep-06 10:33N 34°38' W 076°40'0 0.0
2014-Sep-06 09:33N 34°38' W 076°40'0 0.0
2014-Sep-06 08:33N 34°38' W 076°40'0 0.0
2014-Sep-06 07:33N 34°38' W 076°40'0 0.0
2014-Sep-06 06:33N 34°38' W 076°40'0 0.0
2014-Sep-06 05:33N 34°38' W 076°40'0 0.0
2014-Sep-06 04:33N 34°38' W 076°40'0 0.0
2014-Sep-06 03:33N 34°38' W 076°40'0 0.0
2014-Sep-06 02:33N 34°38' W 076°40'0 0.0
2014-Sep-06 01:33N 34°38' W 076°40'0 0.0
2014-Sep-06 00:33N 34°38' W 076°40'0 0.0
2014-Sep-05 23:33N 34°38' W 076°40'0 0.0
2014-Sep-05 22:33N 34°38' W 076°40'0 0.0
2014-Sep-05 21:33N 34°38' W 076°40'0 0.0
2014-Sep-05 20:33N 34°38' W 076°40'0 0.0
2014-Sep-05 19:33N 34°38' W 076°40'0 0.0
2014-Sep-05 18:33N 34°38' W 076°40'0 0.0
2014-Sep-05 17:33N 34°38' W 076°40'0 0.0
2014-Sep-05 16:33N 34°38' W 076°40'0 0.1
2014-Sep-05 15:33N 34°38' W 076°40'1 1.3
2014-Sep-05 14:33N 34°39' W 076°40'4 3.6
2014-Sep-05 13:32N 34°43' W 076°41'0 0.0
2014-Sep-05 12:32N 34°43' W 076°41'0 0.0
2014-Sep-05 11:32N 34°43' W 076°41'0 0.0
2014-Sep-05 10:32N 34°43' W 076°41'0 0.0
2014-Sep-05 09:33N 34°43' W 076°41'0 0.0
2014-Sep-05 08:33N 34°43' W 076°41'0 0.0
2014-Sep-05 07:33N 34°43' W 076°41'0 0.0
2014-Sep-05 06:31N 34°43' W 076°41'0 0.0
2014-Sep-05 05:31N 34°43' W 076°41'0 0.0
2014-Sep-05 04:31N 34°43' W 076°41'0 0.0
2014-Sep-05 03:31N 34°43' W 076°41'0 0.0
2014-Sep-05 02:33N 34°43' W 076°41'0 0.0
2014-Sep-05 01:33N 34°43' W 076°41'0 0.0
2014-Sep-05 00:32N 34°43' W 076°41'0 0.0
2014-Sep-04 23:32N 34°43' W 076°41'0 0.0
2014-Sep-04 22:32N 34°43' W 076°41'0 0.0
2014-Sep-04 21:32N 34°43' W 076°41'0 0.0
2014-Sep-04 20:32N 34°43' W 076°41'0 0.0
2014-Sep-04 19:32N 34°43' W 076°41'0 0.0
2014-Sep-04 18:32N 34°43' W 076°41'0 0.0
2014-Sep-04 17:33N 34°43' W 076°41'0 0.0
2014-Sep-04 16:33N 34°43' W 076°41'0 0.0
2014-Sep-04 15:33N 34°43' W 076°41'0 0.0
2014-Sep-04 14:33N 34°43' W 076°41'1 1.2
2014-Sep-04 13:34N 34°42' W 076°41'10 8.5
2014-Sep-04 12:26N 34°33' W 076°37'  

Dump ship's entire track history